Time;durP1;ratioP1;P1;durP2;ratioP2;P2;SDS_P1;SDS_P2;PMS_P1;PMS_P2;Temp;Humidity;BMP_temperature;BMP_pressure;BME280_temperature;BME280_humidity;BME280_pressure;Samples;Min_cycle;Max_cycle;Signal;HPM_P1;HPM_P2
2022/07/14 00:02:37;;;;;;;5.63;2.50;;;24.80;68.70;;;;;;10448858;28;20215;-70
2022/07/14 00:07:38;;;;;;;4.80;2.67;;;24.80;70.00;;;;;;10446066;28;20234;-69
2022/07/14 00:12:39;;;;;;;3.40;3.10;;;24.80;70.20;;;;;;10450215;28;20303;-68
2022/07/14 00:17:39;;;;;;;6.37;2.60;;;24.70;70.80;;;;;;10444431;28;20234;-68
2022/07/14 00:22:40;;;;;;;4.63;2.60;;;24.70;70.60;;;;;;10448467;28;20306;-69
2022/07/14 00:27:40;;;;;;;3.00;2.50;;;24.60;70.80;;;;;;10438459;28;20212;-68
2022/07/14 00:32:41;;;;;;;3.33;2.83;;;24.50;71.50;;;;;;10448985;28;20773;-68
2022/07/14 00:37:42;;;;;;;4.13;2.60;;;24.40;71.30;;;;;;10437233;28;20243;-69
2022/07/14 00:42:48;;;;;;;3.57;2.47;;;24.30;72.30;;;;;;10440664;28;20253;-68
2022/07/14 00:47:48;;;;;;;3.43;2.70;;;24.20;73.20;;;;;;10448334;28;20590;-69
2022/07/14 00:52:50;;;;;;;5.27;2.70;;;24.10;73.70;;;;;;10446298;28;20228;-68
2022/07/14 00:57:51;;;;;;;2.47;2.23;;;23.90;74.60;;;;;;10438889;28;20216;-69
2022/07/14 01:02:52;;;;;;;6.40;2.83;;;23.70;76.00;;;;;;10442369;28;20303;-69
2022/07/14 01:07:54;;;;;;;3.27;2.53;;;23.60;76.10;;;;;;10448001;28;20215;-69
2022/07/14 01:12:59;;;;;;;3.30;3.00;;;23.50;77.00;;;;;;10442508;28;20223;-69
2022/07/14 01:18:00;;;;;;;3.60;2.50;;;23.30;77.30;;;;;;10442777;28;20220;-68
2022/07/14 01:23:01;;;;;;;3.13;2.60;;;23.20;77.60;;;;;;10448130;28;20680;-69
2022/07/14 01:28:02;;;;;;;3.73;2.63;;;23.20;77.40;;;;;;10437392;28;20805;-68
2022/07/14 01:33:02;;;;;;;3.37;2.73;;;23.00;78.70;;;;;;10440275;28;20250;-68
2022/07/14 01:38:03;;;;;;;3.93;2.87;;;22.90;79.90;;;;;;10445156;28;20211;-69
2022/07/14 01:43:04;;;;;;;3.03;2.50;;;22.70;80.40;;;;;;10444817;28;20426;-70
2022/07/14 01:48:04;;;;;;;2.63;2.43;;;22.60;80.80;;;;;;10436803;28;20269;-69
2022/07/14 01:53:06;;;;;;;3.97;2.67;;;22.50;82.00;;;;;;10441793;28;20216;-69
2022/07/14 01:58:06;;;;;;;2.90;2.33;;;22.50;83.00;;;;;;10436375;28;20212;-69
2022/07/14 02:03:11;;;;;;;3.03;2.73;;;22.30;83.80;;;;;;10437058;28;20224;-70
2022/07/14 02:08:11;;;;;;;3.23;2.80;;;22.30;84.10;;;;;;10438795;28;20216;-70
2022/07/14 02:13:12;;;;;;;4.57;2.87;;;22.20;85.30;;;;;;10439799;28;20216;-69
2022/07/14 02:18:13;;;;;;;4.23;2.80;;;22.10;85.40;;;;;;10444963;28;20226;-69
2022/07/14 02:23:14;;;;;;;2.80;2.60;;;22.10;85.60;;;;;;10440125;28;20300;-69
2022/07/14 02:28:15;;;;;;;5.50;3.30;;;22.00;86.50;;;;;;10438221;28;20307;-68
2022/07/14 02:33:15;;;;;;;3.83;2.90;;;21.90;87.60;;;;;;10440676;28;20233;-68
2022/07/14 02:38:16;;;;;;;3.30;2.70;;;21.80;88.40;;;;;;10439694;28;20873;-70
2022/07/14 02:43:16;;;;;;;2.70;2.50;;;21.80;89.90;;;;;;10440018;28;20631;-69
2022/07/14 02:48:17;;;;;;;3.00;2.80;;;21.70;89.40;;;;;;10444374;28;20215;-69
2022/07/14 02:53:18;;;;;;;4.13;2.97;;;21.60;90.00;;;;;;10439163;28;20818;-69
2022/07/14 02:58:19;;;;;;;3.80;3.10;;;21.60;90.30;;;;;;10446349;28;20203;-69
2022/07/14 03:03:20;;;;;;;3.50;3.20;;;21.50;90.70;;;;;;10446887;28;20226;-69
2022/07/14 03:08:21;;;;;;;3.93;2.87;;;21.50;91.20;;;;;;10447098;28;20216;-68
2022/07/14 03:13:22;;;;;;;3.67;2.70;;;21.40;91.50;;;;;;10445412;28;20282;-69
2022/07/14 03:18:24;;;;;;;3.83;3.27;;;21.30;92.00;;;;;;10449988;28;20216;-69
2022/07/14 03:23:24;;;;;;;3.80;2.97;;;21.30;92.50;;;;;;10452141;28;20238;-69
2022/07/14 03:28:25;;;;;;;4.37;3.40;;;21.30;92.90;;;;;;10442002;28;20246;-68
2022/07/14 03:33:26;;;;;;;5.63;3.23;;;21.20;93.30;;;;;;10446395;28;20722;-68
2022/07/14 03:38:26;;;;;;;5.10;3.17;;;21.20;93.70;;;;;;10445862;28;20214;-68
2022/07/14 03:43:27;;;;;;;3.37;3.07;;;21.10;94.20;;;;;;10433861;28;20626;-69
2022/07/14 03:48:28;;;;;;;4.93;3.53;;;21.10;94.50;;;;;;10446256;28;20228;-69
2022/07/14 03:53:32;;;;;;;3.63;2.90;;;21.10;94.70;;;;;;10448638;28;20306;-69
2022/07/14 03:58:33;;;;;;;11.30;3.37;;;21.10;95.00;;;;;;10445972;28;20216;-68
2022/07/14 04:03:33;;;;;;;4.33;3.03;;;21.10;95.40;;;;;;10441779;28;20228;-69
2022/07/14 04:08:34;;;;;;;3.33;3.03;;;21.20;95.50;;;;;;10454948;28;20662;-70
2022/07/14 04:13:38;;;;;;;5.73;3.60;;;21.40;95.50;;;;;;10444566;28;20243;-69
2022/07/14 04:18:38;;;;;;;5.27;3.10;;;21.50;95.60;;;;;;10448529;28;20213;-68
2022/07/14 04:23:39;;;;;;;3.63;3.33;;;21.60;95.60;;;;;;10451163;28;20235;-69
2022/07/14 04:28:39;;;;;;;4.13;2.90;;;21.70;95.40;;;;;;10451420;28;20224;-69
2022/07/14 04:33:40;;;;;;;12.10;3.70;;;21.80;95.50;;;;;;10437425;28;20288;-71
2022/07/14 04:38:41;;;;;;;4.57;3.50;;;21.90;95.40;;;;;;10447939;28;20211;-70
2022/07/14 04:43:42;;;;;;;6.77;3.93;;;22.00;95.50;;;;;;10443547;28;20278;-70
2022/07/14 04:54:02;;;;;;;11.20;4.50;;;22.40;95.00;;;;;;10439720;28;20228;-67
2022/07/14 04:59:03;;;;;;;9.53;4.20;;;22.70;94.30;;;;;;10438457;28;20224;-68
2022/07/14 05:04:03;;;;;;;7.50;3.50;;;22.90;94.20;;;;;;10441986;28;20219;-68
2022/07/14 05:09:04;;;;;;;6.40;3.37;;;22.90;93.30;;;;;;10452326;28;20591;-69
2022/07/14 05:14:05;;;;;;;6.30;2.97;;;22.90;93.10;;;;;;10438099;28;20219;-70
2022/07/14 05:19:06;;;;;;;19.03;3.23;;;22.90;92.60;;;;;;10440641;28;20208;-70
2022/07/14 05:24:07;;;;;;;21.67;3.90;;;22.90;91.30;;;;;;10442984;28;20684;-70
2022/07/14 05:29:07;;;;;;;10.37;3.50;;;23.00;90.40;;;;;;10435428;28;20228;-70
2022/07/14 05:34:11;;;;;;;7.07;2.87;;;23.20;90.60;;;;;;10432822;28;20241;-71
2022/07/14 05:39:11;;;;;;;9.37;3.10;;;23.40;90.60;;;;;;10455553;28;20208;-70
2022/07/14 05:44:12;;;;;;;5.47;3.17;;;23.50;90.10;;;;;;10431674;28;20224;-69
2022/07/14 05:49:13;;;;;;;3.57;2.67;;;23.60;89.20;;;;;;10427139;28;20574;-70
2022/07/14 05:54:14;;;;;;;4.00;3.00;;;23.70;88.20;;;;;;10437852;28;20337;-69
2022/07/14 05:59:18;;;;;;;10.07;2.57;;;23.90;87.40;;;;;;10435788;28;20823;-69
2022/07/14 06:04:19;;;;;;;6.00;2.40;;;25.70;80.00;;;;;;10423343;28;20232;-70
2022/07/14 06:09:21;;;;;;;3.90;2.17;;;26.50;73.60;;;;;;10427980;28;20782;-70
2022/07/14 06:14:22;;;;;;;3.80;2.37;;;27.60;69.40;;;;;;10431953;28;20660;-70
2022/07/14 06:19:22;;;;;;;7.17;2.50;;;28.10;64.90;;;;;;10425407;28;20307;-70
2022/07/14 06:24:23;;;;;;;6.47;2.13;;;27.60;65.60;;;;;;10422816;28;20220;-69
2022/07/14 06:29:23;;;;;;;4.73;2.17;;;26.90;68.20;;;;;;10432810;28;20310;-70
2022/07/14 06:34:28;;;;;;;4.63;2.37;;;26.20;68.70;;;;;;10438459;28;20641;-70
2022/07/14 06:39:35;;;;;;;10.07;2.57;;;25.80;71.50;;;;;;10430403;28;20366;-70
2022/07/14 06:44:35;;;;;;;6.47;2.40;;;25.60;72.10;;;;;;10434824;28;20227;-69
2022/07/14 06:49:36;;;;;;;4.53;2.37;;;25.70;72.50;;;;;;10436902;28;20215;-70
2022/07/14 06:54:37;;;;;;;6.80;2.50;;;27.20;69.20;;;;;;10429701;28;20310;-70
2022/07/14 06:59:37;;;;;;;11.30;2.93;;;28.40;64.90;;;;;;10428023;28;20298;-70
2022/07/14 07:04:38;;;;;;;4.63;2.43;;;30.90;57.60;;;;;;10434446;28;20315;-69
2022/07/14 07:09:38;;;;;;;4.57;2.60;;;32.10;53.80;;;;;;10428689;28;20212;-70
2022/07/14 07:14:39;;;;;;;3.07;2.50;;;33.40;50.50;;;;;;10433492;28;20224;-69
2022/07/14 07:19:39;;;;;;;4.50;2.77;;;32.60;50.80;;;;;;10426825;28;20236;-69
2022/07/14 07:24:40;;;;;;;4.77;2.60;;;30.90;53.90;;;;;;10439549;28;20224;-70
2022/07/14 07:29:41;;;;;;;8.03;2.53;;;29.50;56.40;;;;;;10435768;28;20733;-70
2022/07/14 07:34:41;;;;;;;9.20;2.90;;;28.70;58.80;;;;;;10425962;28;20236;-69
2022/07/14 07:39:42;;;;;;;4.77;2.73;;;28.40;59.70;;;;;;10436743;28;20307;-69
2022/07/14 07:44:42;;;;;;;2.50;2.30;;;28.00;61.20;;;;;;10425527;28;20232;-69
2022/07/14 07:49:43;;;;;;;2.67;2.07;;;28.10;61.50;;;;;;10439103;28;20230;-70
2022/07/14 07:54:44;;;;;;;5.10;2.40;;;28.10;60.80;;;;;;10432324;28;20314;-71
2022/07/14 07:59:46;;;;;;;3.87;2.57;;;28.30;61.40;;;;;;10430422;28;20224;-69
2022/07/14 08:04:48;;;;;;;4.13;2.17;;;28.90;60.00;;;;;;10433478;28;20220;-70
2022/07/14 08:09:49;;;;;;;3.97;2.90;;;29.80;58.30;;;;;;10434562;28;20691;-70
2022/07/14 08:14:49;;;;;;;4.30;2.37;;;31.10;55.50;;;;;;10431863;28;20232;-70
2022/07/14 08:19:50;;;;;;;2.47;2.20;;;31.60;54.30;;;;;;10434171;28;20208;-69
2022/07/14 08:24:51;;;;;;;3.83;2.40;;;31.40;53.70;;;;;;10454930;28;20377;-70
2022/07/14 08:29:53;;;;;;;6.93;2.60;;;31.20;53.90;;;;;;10424554;28;20232;-70
2022/07/14 08:34:54;;;;;;;3.97;2.63;;;31.00;54.20;;;;;;10429902;28;20224;-70
2022/07/14 08:39:54;;;;;;;2.53;2.20;;;30.40;55.30;;;;;;10425440;28;20580;-71
2022/07/14 08:44:55;;;;;;;3.27;2.50;;;31.00;54.40;;;;;;10430364;28;20212;-69
2022/07/14 08:49:56;;;;;;;6.97;2.50;;;31.70;52.60;;;;;;10429875;28;20212;-69
2022/07/14 08:54:57;;;;;;;2.33;2.13;;;30.90;53.30;;;;;;10429260;28;20220;-69
2022/07/14 08:59:58;;;;;;;5.40;2.60;;;30.10;54.60;;;;;;10425063;28;20228;-68
2022/07/14 09:05:02;;;;;;;4.80;2.23;;;29.70;55.60;;;;;;10444134;28;20228;-69
2022/07/14 09:10:11;;;;;;;3.87;2.30;;;30.00;55.20;;;;;;10424660;28;20286;-70
2022/07/14 09:20:33;;;;;;;8.03;2.20;;;33.80;48.50;;;;;;10429090;28;20219;-70
2022/07/14 09:25:34;;;;;;;4.10;1.97;;;35.40;45.30;;;;;;10422237;28;20324;-70
2022/07/14 09:30:38;;;;;;;6.70;1.90;;;37.00;42.10;;;;;;10429788;28;20281;-70
2022/07/14 09:35:43;;;;;;;3.63;2.30;;;37.00;40.80;;;;;;10422139;28;20311;-70
2022/07/14 09:40:46;;;;;;;3.63;2.00;;;37.20;40.60;;;;;;10421743;28;20270;-70
2022/07/14 09:45:51;;;;;;;8.10;2.50;;;36.50;40.80;;;;;;10430325;28;20224;-70
2022/07/14 09:51:01;;;;;;;4.30;1.70;;;37.10;41.30;;;;;;10430105;28;20269;-70
2022/07/14 09:56:08;;;;;;;5.17;2.17;;;37.90;39.90;;;;;;10427325;28;20254;-71
2022/07/14 10:01:11;;;;;;;4.33;2.23;;;39.90;36.10;;;;;;10434967;28;20859;-70
2022/07/14 10:06:13;;;;;;;4.13;2.40;;;41.00;34.70;;;;;;10421691;28;20224;-71
2022/07/14 10:11:14;;;;;;;6.07;2.37;;;41.60;34.00;;;;;;10428557;28;20217;-71
2022/07/14 10:16:15;;;;;;;11.47;2.47;;;42.90;31.70;;;;;;10426927;28;20258;-71
2022/07/14 10:21:17;;;;;;;6.23;1.80;;;43.00;31.30;;;;;;10428381;28;20307;-70
2022/07/14 10:26:18;;;;;;;2.80;2.15;;;44.40;30.60;;;;;;10424298;28;20311;-70
2022/07/14 10:31:38;;;;;;;4.07;2.17;;;44.70;29.20;;;;;;10423096;28;20327;-71
2022/07/14 10:36:41;;;;;;;5.97;2.30;;;45.00;29.00;;;;;;10427668;28;20231;-71
2022/07/14 10:42:00;;;;;;;5.53;2.60;;;44.60;28.30;;;;;;10419739;28;20688;-70
2022/07/14 10:47:12;;;;;;;5.57;2.33;;;43.40;28.80;;;;;;10422063;28;20220;-71
2022/07/14 10:52:25;;;;;;;7.63;2.72;;;44.20;29.50;;;;;;10423739;28;20231;-70
2022/07/14 10:57:25;;;;;;;7.38;2.72;;;45.30;28.60;;;;;;10427856;28;20259;-71
2022/07/14 11:02:28;;;;;;;7.95;3.22;;;45.10;28.50;;;;;;10425176;28;20257;-71
2022/07/14 11:07:38;;;;;;;5.00;2.42;;;43.70;29.70;;;;;;10420773;28;20224;-71
2022/07/14 11:12:59;;;;;;;5.50;3.03;;;44.50;29.50;;;;;;10427294;28;20637;-71
2022/07/14 11:18:24;;;;;;;7.10;2.70;;;42.50;30.60;;;;;;10421156;28;20259;-71
2022/07/14 11:23:48;;;;;;;5.67;2.80;;;42.90;31.00;;;;;;10429511;28;20228;-71
2022/07/14 11:28:50;;;;;;;7.50;2.77;;;44.10;29.90;;;;;;10427638;28;20220;-70
2022/07/14 11:39:17;;;;;;;10.53;3.33;;;42.80;30.60;;;;;;10430217;28;20231;-70
2022/07/14 11:44:38;;;;;;;3.67;2.27;;;40.90;33.10;;;;;;10441421;28;20742;-70
2022/07/14 11:49:40;;;;;;;7.77;2.47;;;38.00;36.90;;;;;;10426165;28;20228;-69
2022/07/14 11:54:42;;;;;;;5.23;3.00;;;36.30;40.00;;;;;;10456305;28;20393;-69
2022/07/14 11:59:43;;;;;;;114.13;9.97;;;35.40;41.20;;;;;;10425052;28;20212;-70
2022/07/14 12:04:57;;;;;;;9.77;3.30;;;35.20;42.00;;;;;;10432862;28;20703;-70
2022/07/14 12:09:59;;;;;;;4.87;2.90;;;35.40;42.10;;;;;;10443630;28;20303;-69
2022/07/14 12:14:59;;;;;;;6.20;2.80;;;35.00;42.20;;;;;;10431596;28;20320;-70
2022/07/14 12:20:01;;;;;;;13.17;3.33;;;35.30;42.60;;;;;;10428932;28;20303;-70
2022/07/14 12:25:01;;;;;;;4.60;3.13;;;35.60;42.30;;;;;;10432630;28;20223;-70
2022/07/14 12:30:02;;;;;;;6.00;2.90;;;35.50;42.20;;;;;;10429966;28;20310;-70
2022/07/14 12:35:03;;;;;;;7.90;3.20;;;35.60;42.50;;;;;;10425263;28;20247;-70
2022/07/14 12:40:05;;;;;;;7.10;2.90;;;35.20;42.70;;;;;;10423313;28;20314;-71
2022/07/14 12:45:07;;;;;;;7.03;3.40;;;35.10;43.00;;;;;;10428745;28;20195;-70
2022/07/14 12:50:19;;;;;;;5.67;2.70;;;35.10;42.80;;;;;;10427127;28;20184;-69
2022/07/14 12:55:36;;;;;;;4.67;2.93;;;34.50;43.60;;;;;;10431829;28;20212;-70
2022/07/14 13:00:39;;;;;;;3.10;2.77;;;34.20;44.20;;;;;;10430499;28;20209;-69
2022/07/14 13:05:54;;;;;;;8.27;3.30;;;33.60;44.60;;;;;;10430759;28;20212;-69
2022/07/14 13:11:03;;;;;;;5.77;2.60;;;33.00;44.90;;;;;;10439822;28;20488;-70
2022/07/14 13:16:18;;;;;;;4.70;2.50;;;32.80;44.30;;;;;;10429680;28;20231;-70
2022/07/14 13:21:19;;;;;;;5.20;3.00;;;32.80;42.60;;;;;;10426384;28;20286;-70
2022/07/14 13:26:22;;;;;;;4.53;2.37;;;33.00;40.90;;;;;;10426587;28;20269;-70
2022/07/14 13:31:24;;;;;;;4.00;2.80;;;32.70;41.40;;;;;;10424924;28;20229;-69
2022/07/14 13:36:25;;;;;;;3.87;2.60;;;32.50;41.80;;;;;;10433763;28;20224;-69
2022/07/14 13:41:26;;;;;;;10.93;2.40;;;32.40;41.70;;;;;;10423685;28;20370;-70
2022/07/14 13:46:27;;;;;;;6.87;2.30;;;32.30;42.10;;;;;;10430373;28;20224;-70
2022/07/14 13:56:47;;;;;;;4.17;2.33;;;31.60;42.60;;;;;;10427701;28;20232;-69
2022/07/14 14:01:48;;;;;;;8.80;2.53;;;31.20;42.90;;;;;;10428654;28;20682;-70
2022/07/14 14:06:49;;;;;;;7.07;1.80;;;31.10;41.40;;;;;;10428228;28;20592;-69
2022/07/14 14:11:50;;;;;;;75.27;5.37;;;30.90;40.50;;;;;;10435519;28;20216;-70
2022/07/14 14:16:51;;;;;;;6.90;2.13;;;30.30;40.90;;;;;;10426893;28;20255;-70
2022/07/14 14:21:51;;;;;;;7.30;2.10;;;29.90;41.90;;;;;;10428130;28;20255;-70
2022/07/14 14:26:55;;;;;;;6.00;2.20;;;29.80;42.50;;;;;;10434614;28;20211;-69
2022/07/14 14:31:58;;;;;;;6.27;2.00;;;29.80;42.70;;;;;;10425087;28;20259;-70
2022/07/14 14:37:01;;;;;;;2.43;2.03;;;29.90;42.70;;;;;;10421679;28;20221;-71
2022/07/14 14:42:02;;;;;;;6.43;2.10;;;29.90;42.90;;;;;;10425310;28;20220;-71
2022/07/14 14:47:03;;;;;;;4.23;2.10;;;29.70;43.00;;;;;;10430201;28;20214;-69
2022/07/14 14:52:07;;;;;;;5.13;2.40;;;29.40;43.20;;;;;;10425674;28;20227;-70
2022/07/14 14:57:07;;;;;;;4.60;2.47;;;29.00;44.10;;;;;;10428917;28;20310;-69
2022/07/14 15:02:08;;;;;;;5.60;2.47;;;28.90;44.80;;;;;;10432424;28;20313;-69
2022/07/14 15:07:09;;;;;;;4.17;2.40;;;29.00;45.20;;;;;;10430712;28;20227;-69
2022/07/14 15:12:10;;;;;;;7.87;3.30;;;28.90;46.10;;;;;;10428024;28;20219;-69
2022/07/14 15:17:11;;;;;;;3.80;2.20;;;29.10;46.20;;;;;;10430677;28;20231;-70
2022/07/14 15:22:15;;;;;;;5.67;2.33;;;29.10;46.30;;;;;;10438016;28;20702;-70
2022/07/14 15:27:17;;;;;;;3.40;2.30;;;29.20;46.20;;;;;;10430453;28;20220;-69
2022/07/14 15:32:21;;;;;;;6.43;2.80;;;29.30;46.60;;;;;;10430574;28;20285;-69
2022/07/14 15:37:22;;;;;;;4.53;2.30;;;29.40;46.20;;;;;;10428312;28;20239;-69
2022/07/14 15:42:25;;;;;;;6.07;2.50;;;29.50;45.90;;;;;;10438223;28;20312;-69
2022/07/14 15:47:26;;;;;;;9.87;2.80;;;29.50;45.80;;;;;;10428131;28;20221;-69
2022/07/14 15:52:26;;;;;;;4.87;2.30;;;29.50;45.90;;;;;;10433836;28;20885;-69
2022/07/14 15:57:27;;;;;;;5.13;2.43;;;29.50;45.70;;;;;;10440448;28;20702;-69
2022/07/14 16:02:28;;;;;;;2.83;2.30;;;29.60;44.20;;;;;;10438795;28;20216;-71
2022/07/14 16:07:28;;;;;;;5.30;2.60;;;29.50;43.40;;;;;;10434701;28;20220;-70
2022/07/14 16:12:30;;;;;;;4.20;2.50;;;29.60;43.60;;;;;;10425001;28;20858;-69
2022/07/14 16:17:30;;;;;;;3.40;2.23;;;29.60;43.00;;;;;;10446200;28;20235;-70
2022/07/14 16:22:31;;;;;;;8.30;2.73;;;29.60;43.00;;;;;;10441790;28;20267;-69
2022/07/14 16:27:33;;;;;;;12.33;2.67;;;29.50;42.10;;;;;;10445022;28;20230;-70
2022/07/14 16:32:33;;;;;;;5.73;2.43;;;29.10;42.40;;;;;;10432607;28;20239;-69
2022/07/14 16:37:34;;;;;;;4.73;2.80;;;28.90;42.40;;;;;;10430500;28;20242;-70
2022/07/14 16:42:35;;;;;;;3.03;2.20;;;28.80;42.60;;;;;;10439935;28;20735;-69
2022/07/14 16:47:35;;;;;;;5.90;2.80;;;28.80;42.90;;;;;;10429903;28;20208;-69
2022/07/14 16:52:36;;;;;;;5.60;3.00;;;28.70;42.60;;;;;;10424261;28;20266;-70
2022/07/14 16:57:37;;;;;;;6.57;2.87;;;28.40;43.10;;;;;;10430565;28;20231;-69
2022/07/14 17:02:38;;;;;;;9.43;2.90;;;28.30;43.50;;;;;;10429390;28;20223;-69
2022/07/14 17:07:39;;;;;;;5.57;2.70;;;28.20;43.50;;;;;;10422533;28;20228;-69
2022/07/14 17:12:39;;;;;;;6.67;2.80;;;27.90;44.00;;;;;;10429337;28;20593;-70
2022/07/14 17:17:40;;;;;;;6.43;2.43;;;27.80;44.40;;;;;;10421715;28;20318;-69
2022/07/14 17:22:41;;;;;;;9.10;2.40;;;27.70;44.50;;;;;;10428962;28;20303;-69
2022/07/14 17:27:42;;;;;;;5.03;2.87;;;27.50;44.90;;;;;;10422338;28;20223;-69
2022/07/14 17:32:42;;;;;;;4.27;2.47;;;27.30;45.20;;;;;;10429266;28;20239;-70
2022/07/14 17:37:43;;;;;;;5.03;2.40;;;27.40;44.90;;;;;;10427234;28;20253;-70
2022/07/14 17:42:44;;;;;;;5.63;2.70;;;27.40;44.20;;;;;;10450944;28;20250;-70
2022/07/14 17:47:45;;;;;;;4.80;2.43;;;27.40;44.10;;;;;;10418758;28;20250;-70
2022/07/14 17:52:45;;;;;;;6.13;2.37;;;27.30;44.20;;;;;;10425821;28;20230;-69
2022/07/14 17:57:46;;;;;;;7.70;2.90;;;27.10;44.40;;;;;;10438886;28;20289;-69
2022/07/14 18:02:48;;;;;;;7.73;3.00;;;26.70;44.00;;;;;;10429862;28;20232;-69
2022/07/14 18:07:49;;;;;;;5.13;2.67;;;26.50;44.30;;;;;;10428076;28;20306;-69
2022/07/14 18:12:49;;;;;;;7.53;2.57;;;26.30;45.10;;;;;;10427665;28;20558;-70
2022/07/14 18:17:51;;;;;;;6.33;2.70;;;26.00;45.00;;;;;;10422824;28;20235;-70
2022/07/14 18:22:52;;;;;;;2.83;2.17;;;25.80;45.50;;;;;;10427724;28;20220;-70
2022/07/14 18:27:58;;;;;;;6.20;2.60;;;25.60;46.00;;;;;;10443772;28;20675;-70
2022/07/14 18:32:58;;;;;;;5.57;2.63;;;25.30;46.40;;;;;;10427850;28;20661;-70
2022/07/14 18:37:59;;;;;;;3.83;2.00;;;25.20;46.60;;;;;;10426248;28;20272;-69
2022/07/14 18:43:04;;;;;;;3.20;2.13;;;25.10;51.80;;;;;;10421374;28;20224;-69
2022/07/14 18:48:04;;;;;;;3.73;2.30;;;25.10;49.80;;;;;;10424424;28;20219;-68
2022/07/14 18:53:06;;;;;;;5.17;2.50;;;25.00;49.70;;;;;;10442127;28;20251;-68
2022/07/14 18:58:06;;;;;;;2.77;2.00;;;25.00;48.80;;;;;;10422061;28;20239;-68
2022/07/14 19:03:07;;;;;;;3.57;2.40;;;25.00;50.10;;;;;;10423937;28;20765;-68
2022/07/14 19:08:07;;;;;;;6.73;2.50;;;24.80;49.90;;;;;;10421770;28;20220;-69
2022/07/14 19:13:11;;;;;;;4.30;1.90;;;24.80;50.20;;;;;;10423498;28;20246;-69
2022/07/14 19:18:12;;;;;;;5.30;2.30;;;24.70;50.00;;;;;;10422465;28;20639;-68
2022/07/14 19:23:13;;;;;;;3.30;1.97;;;24.60;50.90;;;;;;10422431;28;20232;-66
2022/07/14 19:28:15;;;;;;;4.47;2.10;;;24.50;49.80;;;;;;10422862;28;20280;-67
2022/07/14 19:33:16;;;;;;;5.43;1.70;;;24.30;50.60;;;;;;10422096;28;20235;-67
2022/07/14 19:38:17;;;;;;;4.67;2.03;;;24.00;50.20;;;;;;10423238;28;20216;-67
2022/07/14 19:43:18;;;;;;;6.87;2.27;;;23.90;51.40;;;;;;10427913;28;20728;-66
2022/07/14 19:48:19;;;;;;;3.40;1.80;;;23.70;51.10;;;;;;10433192;28;20570;-69
2022/07/14 19:53:20;;;;;;;4.63;2.07;;;23.50;51.20;;;;;;10429161;28;20212;-69
2022/07/14 19:58:20;;;;;;;4.63;2.30;;;23.20;51.70;;;;;;10424964;28;20211;-67
2022/07/14 20:03:21;;;;;;;4.43;1.93;;;23.10;52.00;;;;;;10428728;28;20245;-68
2022/07/14 20:08:25;;;;;;;4.30;1.77;;;23.00;52.40;;;;;;10433214;28;20217;-70
2022/07/14 20:13:26;;;;;;;3.77;2.00;;;22.80;52.70;;;;;;10429786;28;20216;-68
2022/07/14 20:18:26;;;;;;;3.90;2.13;;;22.70;53.00;;;;;;10427334;28;20220;-68
2022/07/14 20:23:27;;;;;;;4.00;1.93;;;22.60;53.30;;;;;;10430072;28;20357;-69
2022/07/14 20:33:47;;;;;;;2.83;2.40;;;22.40;54.20;;;;;;10432222;28;20262;-70
2022/07/14 20:38:48;;;;;;;4.87;2.10;;;22.30;54.60;;;;;;10439440;28;20220;-69
2022/07/14 20:43:48;;;;;;;2.63;1.80;;;22.10;55.00;;;;;;10423895;28;20317;-70
2022/07/14 20:48:49;;;;;;;3.13;1.87;;;22.00;55.40;;;;;;10430711;28;20354;-69
2022/07/14 20:53:50;;;;;;;4.30;2.10;;;21.90;55.70;;;;;;10432499;28;20219;-69
2022/07/14 20:58:51;;;;;;;4.27;2.10;;;21.90;56.10;;;;;;10424156;28;20350;-68
2022/07/14 21:03:52;;;;;;;2.83;1.97;;;21.70;56.60;;;;;;10429921;28;20230;-68
2022/07/14 21:08:52;;;;;;;4.27;2.50;;;21.60;57.10;;;;;;10419976;28;20226;-69
2022/07/14 21:13:53;;;;;;;3.83;2.13;;;21.40;57.20;;;;;;10422722;28;20224;-69
2022/07/14 21:18:54;;;;;;;3.07;2.37;;;21.40;56.90;;;;;;10421713;28;20684;-68
2022/07/14 21:23:55;;;;;;;3.20;2.00;;;21.30;57.50;;;;;;10428342;28;20215;-69
2022/07/14 21:28:56;;;;;;;3.83;2.30;;;21.20;57.90;;;;;;10422412;28;20307;-68
2022/07/14 21:33:57;;;;;;;3.43;2.00;;;21.00;58.40;;;;;;10427203;28;20243;-68
2022/07/14 21:38:57;;;;;;;3.47;1.83;;;20.90;58.80;;;;;;10420774;28;20223;-68
2022/07/14 21:43:58;;;;;;;4.20;1.90;;;20.80;59.00;;;;;;10420351;28;20232;-69
2022/07/14 21:48:58;;;;;;;3.67;1.83;;;20.80;58.40;;;;;;10429767;28;20216;-72
2022/07/14 21:54:02;;;;;;;3.67;1.90;;;20.80;58.20;;;;;;10440500;28;20231;-69
2022/07/14 21:59:03;;;;;;;6.33;2.03;;;20.70;58.20;;;;;;10422546;28;20779;-68
2022/07/14 22:04:08;;;;;;;6.67;2.23;;;20.60;58.20;;;;;;10434064;28;20247;-68
2022/07/14 22:09:08;;;;;;;2.70;1.70;;;20.60;58.70;;;;;;10423861;28;20370;-69
2022/07/14 22:14:12;;;;;;;4.53;1.60;;;20.60;57.60;;;;;;10425350;28;20251;-68
2022/07/14 22:19:13;;;;;;;4.03;1.90;;;20.60;56.90;;;;;;10426807;28;20238;-69
2022/07/14 22:24:14;;;;;;;3.43;1.80;;;20.60;56.70;;;;;;10422420;28;20500;-68
2022/07/14 22:29:15;;;;;;;5.90;2.40;;;20.60;56.40;;;;;;10426430;28;20442;-68
2022/07/14 22:34:16;;;;;;;5.20;2.30;;;20.50;56.30;;;;;;10422549;28;20232;-68
2022/07/14 22:39:16;;;;;;;3.77;1.53;;;20.50;55.80;;;;;;10422495;28;20228;-69
2022/07/14 22:44:17;;;;;;;2.77;1.37;;;20.50;55.90;;;;;;10423443;28;20228;-69
2022/07/14 22:49:18;;;;;;;3.67;1.70;;;20.40;56.10;;;;;;10427466;28;20218;-68
2022/07/14 22:54:19;;;;;;;3.40;1.43;;;20.30;56.60;;;;;;10422719;28;20228;-68
2022/07/14 22:59:19;;;;;;;5.60;2.00;;;20.20;57.10;;;;;;10435205;28;20225;-68
2022/07/14 23:04:20;;;;;;;4.27;1.70;;;20.10;57.40;;;;;;10423411;28;20224;-68
2022/07/14 23:09:21;;;;;;;4.33;1.70;;;19.90;57.90;;;;;;10422868;28;20361;-68
2022/07/14 23:14:21;;;;;;;4.57;1.63;;;19.70;58.60;;;;;;10423541;28;20281;-68
2022/07/14 23:19:22;;;;;;;4.27;1.77;;;19.70;58.60;;;;;;10436988;28;20286;-68
2022/07/14 23:24:23;;;;;;;2.90;1.50;;;19.70;58.50;;;;;;10432035;28;20226;-67
2022/07/14 23:29:23;;;;;;;4.83;2.00;;;19.60;57.90;;;;;;10403860;28;20228;-67
2022/07/14 23:34:24;;;;;;;5.63;2.10;;;19.70;57.20;;;;;;10425993;28;20320;-67
2022/07/14 23:39:24;;;;;;;5.57;2.37;;;19.70;57.20;;;;;;10428863;28;20283;-68
2022/07/14 23:44:25;;;;;;;7.47;2.23;;;19.70;57.30;;;;;;10431702;28;20219;-68
2022/07/14 23:49:25;;;;;;;4.13;1.73;;;19.60;57.60;;;;;;10428562;28;20224;-68
2022/07/14 23:54:26;;;;;;;2.50;1.53;;;19.60;57.90;;;;;;10446353;28;20215;-69
2022/07/14 23:59:28;;;;;;;3.17;1.50;;;19.50;58.10;;;;;;10402565;28;20283;-68
